sensor_id;sensor_type;location;lat;lon;timestamp;temperature;humidity
56861;DHT22;42744;51.094;3.490;2023-04-07T00:00:29;8.30;99.90
56861;DHT22;42744;51.094;3.490;2023-04-07T00:02:55;8.30;99.90
56861;DHT22;42744;51.094;3.490;2023-04-07T00:05:22;8.30;99.90
56861;DHT22;42744;51.094;3.490;2023-04-07T00:07:48;8.30;99.90
56861;DHT22;42744;51.094;3.490;2023-04-07T00:10:14;8.30;99.90
56861;DHT22;42744;51.094;3.490;2023-04-07T00:12:40;8.30;99.90
56861;DHT22;42744;51.094;3.490;2023-04-07T00:15:06;8.30;99.90
56861;DHT22;42744;51.094;3.490;2023-04-07T00:17:33;8.30;99.90
56861;DHT22;42744;51.094;3.490;2023-04-07T00:19:58;8.30;99.90
56861;DHT22;42744;51.094;3.490;2023-04-07T00:22:24;8.20;99.90
56861;DHT22;42744;51.094;3.490;2023-04-07T00:24:50;8.20;99.90
56861;DHT22;42744;51.094;3.490;2023-04-07T00:27:16;8.30;99.90
56861;DHT22;42744;51.094;3.490;2023-04-07T00:29:42;8.30;99.90
56861;DHT22;42744;51.094;3.490;2023-04-07T00:32:11;8.30;99.90
56861;DHT22;42744;51.094;3.490;2023-04-07T00:34:37;8.20;99.90
56861;DHT22;42744;51.094;3.490;2023-04-07T00:37:03;8.20;99.90
56861;DHT22;42744;51.094;3.490;2023-04-07T00:39:31;8.20;99.90
56861;DHT22;42744;51.094;3.490;2023-04-07T00:41:57;8.20;99.90
56861;DHT22;42744;51.094;3.490;2023-04-07T00:44:23;8.20;99.90
56861;DHT22;42744;51.094;3.490;2023-04-07T00:46:49;8.20;99.90
56861;DHT22;42744;51.094;3.490;2023-04-07T00:49:16;8.20;99.90
56861;DHT22;42744;51.094;3.490;2023-04-07T00:51:45;8.20;99.90
56861;DHT22;42744;51.094;3.490;2023-04-07T00:54:11;8.20;99.90
56861;DHT22;42744;51.094;3.490;2023-04-07T00:56:37;8.20;99.90
56861;DHT22;42744;51.094;3.490;2023-04-07T00:59:04;8.20;99.90
56861;DHT22;42744;51.094;3.490;2023-04-07T01:01:38;8.20;99.90
56861;DHT22;42744;51.094;3.490;2023-04-07T01:06:49;8.10;99.90
56861;DHT22;42744;51.094;3.490;2023-04-07T01:09:22;8.10;99.90
56861;DHT22;42744;51.094;3.490;2023-04-07T01:12:17;8.10;99.90
56861;DHT22;42744;51.094;3.490;2023-04-07T01:14:53;8.10;99.90
56861;DHT22;42744;51.094;3.490;2023-04-07T01:17:24;8.10;99.90
56861;DHT22;42744;51.094;3.490;2023-04-07T01:20:02;8.10;99.90
56861;DHT22;42744;51.094;3.490;2023-04-07T01:22:45;8.10;99.90
56861;DHT22;42744;51.094;3.490;2023-04-07T01:30:56;8.10;99.90
56861;DHT22;42744;51.094;3.490;2023-04-07T01:33:23;8.10;99.90
56861;DHT22;42744;51.094;3.490;2023-04-07T01:35:51;8.10;99.90
56861;DHT22;42744;51.094;3.490;2023-04-07T01:38:17;8.10;99.90
56861;DHT22;42744;51.094;3.490;2023-04-07T01:40:44;8.00;99.90
56861;DHT22;42744;51.094;3.490;2023-04-07T01:43:12;8.10;99.90
56861;DHT22;42744;51.094;3.490;2023-04-07T01:45:38;8.00;99.90
56861;DHT22;42744;51.094;3.490;2023-04-07T01:48:06;8.00;99.90
56861;DHT22;42744;51.094;3.490;2023-04-07T01:50:33;8.00;99.90
56861;DHT22;42744;51.094;3.490;2023-04-07T01:53:00;8.00;99.90
56861;DHT22;42744;51.094;3.490;2023-04-07T01:55:28;7.90;99.90
56861;DHT22;42744;51.094;3.490;2023-04-07T01:57:56;7.90;99.90
56861;DHT22;42744;51.094;3.490;2023-04-07T02:00:22;7.90;99.90
56861;DHT22;42744;51.094;3.490;2023-04-07T02:02:54;7.80;99.90
56861;DHT22;42744;51.094;3.490;2023-04-07T02:05:23;7.80;99.90
56861;DHT22;42744;51.094;3.490;2023-04-07T02:07:54;7.80;99.90
56861;DHT22;42744;51.094;3.490;2023-04-07T02:10:24;7.70;99.90
56861;DHT22;42744;51.094;3.490;2023-04-07T02:12:52;7.70;99.90
56861;DHT22;42744;51.094;3.490;2023-04-07T02:15:19;7.70;99.90
56861;DHT22;42744;51.094;3.490;2023-04-07T02:17:52;7.60;99.90
56861;DHT22;42744;51.094;3.490;2023-04-07T02:20:19;7.50;99.90
56861;DHT22;42744;51.094;3.490;2023-04-07T02:22:47;7.50;99.90
56861;DHT22;42744;51.094;3.490;2023-04-07T02:25:27;7.40;99.90
56861;DHT22;42744;51.094;3.490;2023-04-07T02:27:55;7.30;99.90
56861;DHT22;42744;51.094;3.490;2023-04-07T02:30:22;7.30;99.90
56861;DHT22;42744;51.094;3.490;2023-04-07T02:32:50;7.20;99.90
56861;DHT22;42744;51.094;3.490;2023-04-07T02:35:16;7.10;99.90
56861;DHT22;42744;51.094;3.490;2023-04-07T02:37:43;7.10;99.90
56861;DHT22;42744;51.094;3.490;2023-04-07T02:40:09;7.00;99.90
56861;DHT22;42744;51.094;3.490;2023-04-07T02:42:35;7.00;99.90
56861;DHT22;42744;51.094;3.490;2023-04-07T02:45:03;6.90;99.90
56861;DHT22;42744;51.094;3.490;2023-04-07T02:47:29;6.90;99.90
56861;DHT22;42744;51.094;3.490;2023-04-07T02:49:55;6.80;99.90
56861;DHT22;42744;51.094;3.490;2023-04-07T02:52:21;6.80;99.90
56861;DHT22;42744;51.094;3.490;2023-04-07T02:54:47;6.70;99.90
56861;DHT22;42744;51.094;3.490;2023-04-07T02:57:15;6.70;99.90
56861;DHT22;42744;51.094;3.490;2023-04-07T02:59:41;6.70;99.90
56861;DHT22;42744;51.094;3.490;2023-04-07T03:02:08;6.70;99.90
56861;DHT22;42744;51.094;3.490;2023-04-07T03:04:35;6.60;99.90
56861;DHT22;42744;51.094;3.490;2023-04-07T03:07:01;6.60;99.90
56861;DHT22;42744;51.094;3.490;2023-04-07T03:09:28;6.60;99.90
56861;DHT22;42744;51.094;3.490;2023-04-07T03:11:55;6.60;99.90
56861;DHT22;42744;51.094;3.490;2023-04-07T03:14:23;6.60;99.90
56861;DHT22;42744;51.094;3.490;2023-04-07T03:16:49;6.60;99.90
56861;DHT22;42744;51.094;3.490;2023-04-07T03:19:16;6.60;99.90
56861;DHT22;42744;51.094;3.490;2023-04-07T03:21:42;6.60;99.90
56861;DHT22;42744;51.094;3.490;2023-04-07T03:24:08;6.60;99.90
56861;DHT22;42744;51.094;3.490;2023-04-07T03:26:35;6.60;99.90
56861;DHT22;42744;51.094;3.490;2023-04-07T03:29:02;6.50;99.90
56861;DHT22;42744;51.094;3.490;2023-04-07T03:31:29;6.60;99.90
56861;DHT22;42744;51.094;3.490;2023-04-07T03:33:55;6.60;99.90
56861;DHT22;42744;51.094;3.490;2023-04-07T03:36:21;6.70;99.90
56861;DHT22;42744;51.094;3.490;2023-04-07T03:38:47;6.70;99.90
56861;DHT22;42744;51.094;3.490;2023-04-07T03:41:14;6.70;99.90
56861;DHT22;42744;51.094;3.490;2023-04-07T03:43:40;6.70;99.90
56861;DHT22;42744;51.094;3.490;2023-04-07T03:46:09;6.70;99.90
56861;DHT22;42744;51.094;3.490;2023-04-07T03:48:36;6.70;99.90
56861;DHT22;42744;51.094;3.490;2023-04-07T03:51:02;6.60;99.90
56861;DHT22;42744;51.094;3.490;2023-04-07T03:53:30;6.70;99.90
56861;DHT22;42744;51.094;3.490;2023-04-07T03:55:57;6.60;99.90
56861;DHT22;42744;51.094;3.490;2023-04-07T03:58:23;6.60;99.90
56861;DHT22;42744;51.094;3.490;2023-04-07T04:00:50;6.60;99.90
56861;DHT22;42744;51.094;3.490;2023-04-07T04:03:16;6.60;99.90
56861;DHT22;42744;51.094;3.490;2023-04-07T04:05:42;6.60;99.90
56861;DHT22;42744;51.094;3.490;2023-04-07T04:08:09;6.60;99.90
56861;DHT22;42744;51.094;3.490;2023-04-07T04:10:36;6.60;99.90
56861;DHT22;42744;51.094;3.490;2023-04-07T04:13:02;6.60;99.90
56861;DHT22;42744;51.094;3.490;2023-04-07T04:15:31;6.60;99.90
56861;DHT22;42744;51.094;3.490;2023-04-07T04:17:58;6.50;99.90
56861;DHT22;42744;51.094;3.490;2023-04-07T04:20:25;6.50;99.90
56861;DHT22;42744;51.094;3.490;2023-04-07T04:22:50;6.50;99.90
56861;DHT22;42744;51.094;3.490;2023-04-07T04:25:17;6.50;99.90
56861;DHT22;42744;51.094;3.490;2023-04-07T04:27:45;6.40;99.90
56861;DHT22;42744;51.094;3.490;2023-04-07T04:30:13;6.40;99.90
56861;DHT22;42744;51.094;3.490;2023-04-07T04:32:39;6.40;99.90
56861;DHT22;42744;51.094;3.490;2023-04-07T04:35:06;6.40;99.90
56861;DHT22;42744;51.094;3.490;2023-04-07T04:37:33;6.40;99.90
56861;DHT22;42744;51.094;3.490;2023-04-07T04:40:00;6.30;99.90
56861;DHT22;42744;51.094;3.490;2023-04-07T04:42:27;6.30;99.90
56861;DHT22;42744;51.094;3.490;2023-04-07T04:44:54;6.30;99.90
56861;DHT22;42744;51.094;3.490;2023-04-07T04:47:21;6.30;99.90
56861;DHT22;42744;51.094;3.490;2023-04-07T04:49:47;6.20;99.90
56861;DHT22;42744;51.094;3.490;2023-04-07T04:52:13;6.20;99.90
56861;DHT22;42744;51.094;3.490;2023-04-07T04:54:39;6.10;99.90
56861;DHT22;42744;51.094;3.490;2023-04-07T04:57:06;6.00;99.90
56861;DHT22;42744;51.094;3.490;2023-04-07T04:59:33;6.00;99.90
56861;DHT22;42744;51.094;3.490;2023-04-07T05:01:59;6.00;99.90
56861;DHT22;42744;51.094;3.490;2023-04-07T05:04:25;6.00;99.90
56861;DHT22;42744;51.094;3.490;2023-04-07T05:06:53;5.90;99.90
56861;DHT22;42744;51.094;3.490;2023-04-07T05:09:20;5.90;99.90
56861;DHT22;42744;51.094;3.490;2023-04-07T05:11:47;5.80;99.90
56861;DHT22;42744;51.094;3.490;2023-04-07T05:14:13;5.80;99.90
56861;DHT22;42744;51.094;3.490;2023-04-07T05:16:40;5.80;99.90
56861;DHT22;42744;51.094;3.490;2023-04-07T05:19:07;5.80;99.90
56861;DHT22;42744;51.094;3.490;2023-04-07T05:21:33;5.80;99.90
56861;DHT22;42744;51.094;3.490;2023-04-07T05:24:00;5.90;99.90
56861;DHT22;42744;51.094;3.490;2023-04-07T05:26:27;6.00;99.90
56861;DHT22;42744;51.094;3.490;2023-04-07T05:28:53;6.00;99.90
56861;DHT22;42744;51.094;3.490;2023-04-07T05:31:19;6.00;99.90
56861;DHT22;42744;51.094;3.490;2023-04-07T05:33:45;6.10;99.90
56861;DHT22;42744;51.094;3.490;2023-04-07T05:36:12;6.20;99.90
56861;DHT22;42744;51.094;3.490;2023-04-07T05:38:39;6.20;99.90
56861;DHT22;42744;51.094;3.490;2023-04-07T05:41:06;6.30;99.90
56861;DHT22;42744;51.094;3.490;2023-04-07T05:43:34;6.40;99.90
56861;DHT22;42744;51.094;3.490;2023-04-07T05:46:03;6.50;99.90
56861;DHT22;42744;51.094;3.490;2023-04-07T05:48:29;6.50;99.90
56861;DHT22;42744;51.094;3.490;2023-04-07T05:50:56;6.60;99.90
56861;DHT22;42744;51.094;3.490;2023-04-07T05:53:22;6.60;99.90
56861;DHT22;42744;51.094;3.490;2023-04-07T05:55:48;6.70;99.90
56861;DHT22;42744;51.094;3.490;2023-04-07T05:58:15;6.80;99.90
56861;DHT22;42744;51.094;3.490;2023-04-07T06:00:43;6.80;99.90
56861;DHT22;42744;51.094;3.490;2023-04-07T06:03:10;6.90;99.90
56861;DHT22;42744;51.094;3.490;2023-04-07T06:05:38;7.00;99.90
56861;DHT22;42744;51.094;3.490;2023-04-07T06:08:09;7.10;99.90
56861;DHT22;42744;51.094;3.490;2023-04-07T06:10:36;7.10;99.90
56861;DHT22;42744;51.094;3.490;2023-04-07T06:13:01;7.20;99.90
56861;DHT22;42744;51.094;3.490;2023-04-07T06:15:27;7.30;99.90
56861;DHT22;42744;51.094;3.490;2023-04-07T06:17:53;7.30;99.90
56861;DHT22;42744;51.094;3.490;2023-04-07T06:20:20;7.40;99.90
56861;DHT22;42744;51.094;3.490;2023-04-07T06:22:47;7.40;99.90
56861;DHT22;42744;51.094;3.490;2023-04-07T06:25:13;7.40;99.90
56861;DHT22;42744;51.094;3.490;2023-04-07T06:27:39;7.50;99.90
56861;DHT22;42744;51.094;3.490;2023-04-07T06:30:06;7.50;99.90
56861;DHT22;42744;51.094;3.490;2023-04-07T06:32:34;7.60;99.90
56861;DHT22;42744;51.094;3.490;2023-04-07T06:35:00;7.70;99.90
56861;DHT22;42744;51.094;3.490;2023-04-07T06:37:26;7.70;99.90
56861;DHT22;42744;51.094;3.490;2023-04-07T06:39:53;7.70;99.90
56861;DHT22;42744;51.094;3.490;2023-04-07T06:42:19;7.80;99.90
56861;DHT22;42744;51.094;3.490;2023-04-07T06:44:47;7.80;99.90
56861;DHT22;42744;51.094;3.490;2023-04-07T06:47:13;7.90;99.90
56861;DHT22;42744;51.094;3.490;2023-04-07T06:49:39;8.10;99.90
56861;DHT22;42744;51.094;3.490;2023-04-07T06:52:05;8.30;99.90
56861;DHT22;42744;51.094;3.490;2023-04-07T06:54:32;8.40;99.90
56861;DHT22;42744;51.094;3.490;2023-04-07T06:56:58;8.50;99.90
56861;DHT22;42744;51.094;3.490;2023-04-07T06:59:23;8.40;99.90
56861;DHT22;42744;51.094;3.490;2023-04-07T07:01:50;8.40;99.90
56861;DHT22;42744;51.094;3.490;2023-04-07T07:04:16;8.40;99.90
56861;DHT22;42744;51.094;3.490;2023-04-07T07:06:41;8.50;99.90
56861;DHT22;42744;51.094;3.490;2023-04-07T07:09:08;8.50;99.90
56861;DHT22;42744;51.094;3.490;2023-04-07T07:11:34;8.50;99.90
56861;DHT22;42744;51.094;3.490;2023-04-07T07:14:00;8.50;99.90
56861;DHT22;42744;51.094;3.490;2023-04-07T07:16:26;8.60;99.90
56861;DHT22;42744;51.094;3.490;2023-04-07T07:18:53;8.60;99.90
56861;DHT22;42744;51.094;3.490;2023-04-07T07:21:19;8.60;99.90
56861;DHT22;42744;51.094;3.490;2023-04-07T07:23:45;8.60;99.90
56861;DHT22;42744;51.094;3.490;2023-04-07T07:26:11;8.60;99.90
56861;DHT22;42744;51.094;3.490;2023-04-07T07:28:38;8.70;99.90
56861;DHT22;42744;51.094;3.490;2023-04-07T07:31:10;8.70;99.90
56861;DHT22;42744;51.094;3.490;2023-04-07T07:33:41;8.80;99.90
56861;DHT22;42744;51.094;3.490;2023-04-07T07:36:09;9.00;99.90
56861;DHT22;42744;51.094;3.490;2023-04-07T07:38:35;9.10;99.90
56861;DHT22;42744;51.094;3.490;2023-04-07T07:41:01;9.10;99.90
56861;DHT22;42744;51.094;3.490;2023-04-07T07:43:27;9.30;99.90
56861;DHT22;42744;51.094;3.490;2023-04-07T07:45:54;9.40;99.90
56861;DHT22;42744;51.094;3.490;2023-04-07T07:48:20;9.50;99.90
56861;DHT22;42744;51.094;3.490;2023-04-07T07:50:46;9.50;99.90
56861;DHT22;42744;51.094;3.490;2023-04-07T07:53:13;9.60;99.90
56861;DHT22;42744;51.094;3.490;2023-04-07T07:55:39;9.60;99.90
56861;DHT22;42744;51.094;3.490;2023-04-07T07:58:06;9.70;99.90
56861;DHT22;42744;51.094;3.490;2023-04-07T08:00:32;9.80;99.90
56861;DHT22;42744;51.094;3.490;2023-04-07T08:02:58;9.90;99.90
56861;DHT22;42744;51.094;3.490;2023-04-07T08:05:25;9.90;99.90
56861;DHT22;42744;51.094;3.490;2023-04-07T08:07:52;9.90;99.90
56861;DHT22;42744;51.094;3.490;2023-04-07T08:10:18;9.90;99.90
56861;DHT22;42744;51.094;3.490;2023-04-07T08:12:45;10.00;99.90
56861;DHT22;42744;51.094;3.490;2023-04-07T08:15:11;10.00;99.90
56861;DHT22;42744;51.094;3.490;2023-04-07T08:17:37;9.90;99.90
56861;DHT22;42744;51.094;3.490;2023-04-07T08:20:04;9.80;99.90
56861;DHT22;42744;51.094;3.490;2023-04-07T08:22:30;9.80;99.90
56861;DHT22;42744;51.094;3.490;2023-04-07T08:24:56;9.70;99.90
56861;DHT22;42744;51.094;3.490;2023-04-07T08:27:22;9.70;99.90
56861;DHT22;42744;51.094;3.490;2023-04-07T08:30:02;9.70;99.90
56861;DHT22;42744;51.094;3.490;2023-04-07T08:32:41;9.80;99.90
56861;DHT22;42744;51.094;3.490;2023-04-07T08:35:07;9.80;99.90
56861;DHT22;42744;51.094;3.490;2023-04-07T08:37:34;9.80;99.90
56861;DHT22;42744;51.094;3.490;2023-04-07T08:40:01;9.90;99.90
56861;DHT22;42744;51.094;3.490;2023-04-07T08:42:29;9.90;99.90
56861;DHT22;42744;51.094;3.490;2023-04-07T08:44:58;10.00;99.90
56861;DHT22;42744;51.094;3.490;2023-04-07T08:47:27;10.10;99.90
56861;DHT22;42744;51.094;3.490;2023-04-07T08:50:00;10.30;99.90
56861;DHT22;42744;51.094;3.490;2023-04-07T08:52:44;10.60;99.90
56861;DHT22;42744;51.094;3.490;2023-04-07T08:55:13;10.80;99.90
56861;DHT22;42744;51.094;3.490;2023-04-07T08:57:43;11.10;99.90
56861;DHT22;42744;51.094;3.490;2023-04-07T09:00:09;11.30;99.90
56861;DHT22;42744;51.094;3.490;2023-04-07T09:02:38;11.30;99.90
56861;DHT22;42744;51.094;3.490;2023-04-07T09:05:06;11.30;99.90
56861;DHT22;42744;51.094;3.490;2023-04-07T09:07:34;11.20;99.90
56861;DHT22;42744;51.094;3.490;2023-04-07T09:10:01;11.30;99.90
56861;DHT22;42744;51.094;3.490;2023-04-07T09:12:28;11.20;99.90
56861;DHT22;42744;51.094;3.490;2023-04-07T09:14:54;10.90;99.90
56861;DHT22;42744;51.094;3.490;2023-04-07T09:17:21;10.60;99.90
56861;DHT22;42744;51.094;3.490;2023-04-07T09:19:47;10.50;99.90
56861;DHT22;42744;51.094;3.490;2023-04-07T09:22:14;10.50;99.90
56861;DHT22;42744;51.094;3.490;2023-04-07T09:24:40;10.50;99.90
56861;DHT22;42744;51.094;3.490;2023-04-07T09:27:11;10.60;99.90
56861;DHT22;42744;51.094;3.490;2023-04-07T09:29:39;10.70;99.90
56861;DHT22;42744;51.094;3.490;2023-04-07T09:32:05;10.80;99.90
56861;DHT22;42744;51.094;3.490;2023-04-07T09:34:34;10.80;99.90
56861;DHT22;42744;51.094;3.490;2023-04-07T09:37:00;10.70;99.90
56861;DHT22;42744;51.094;3.490;2023-04-07T09:39:27;10.70;99.90
56861;DHT22;42744;51.094;3.490;2023-04-07T09:41:53;10.60;99.90
56861;DHT22;42744;51.094;3.490;2023-04-07T09:44:20;10.70;99.90
56861;DHT22;42744;51.094;3.490;2023-04-07T09:46:57;10.70;99.90
56861;DHT22;42744;51.094;3.490;2023-04-07T09:49:24;10.80;99.90
56861;DHT22;42744;51.094;3.490;2023-04-07T09:51:56;11.00;99.90
56861;DHT22;42744;51.094;3.490;2023-04-07T09:54:35;11.00;99.90
56861;DHT22;42744;51.094;3.490;2023-04-07T09:57:04;10.90;99.90
56861;DHT22;42744;51.094;3.490;2023-04-07T09:59:32;10.90;99.90
56861;DHT22;42744;51.094;3.490;2023-04-07T10:01:59;10.90;99.90
56861;DHT22;42744;51.094;3.490;2023-04-07T10:04:26;10.90;99.90
56861;DHT22;42744;51.094;3.490;2023-04-07T10:06:52;11.00;99.90
56861;DHT22;42744;51.094;3.490;2023-04-07T10:09:26;11.00;99.90
56861;DHT22;42744;51.094;3.490;2023-04-07T10:11:54;11.00;99.90
56861;DHT22;42744;51.094;3.490;2023-04-07T10:14:29;11.00;99.90
56861;DHT22;42744;51.094;3.490;2023-04-07T10:16:58;11.00;99.90
56861;DHT22;42744;51.094;3.490;2023-04-07T10:19:25;11.00;99.90
56861;DHT22;42744;51.094;3.490;2023-04-07T10:21:53;10.90;99.90
56861;DHT22;42744;51.094;3.490;2023-04-07T10:27:08;10.70;99.90
56861;DHT22;42744;51.094;3.490;2023-04-07T10:29:40;10.70;99.90
56861;DHT22;42744;51.094;3.490;2023-04-07T10:32:07;10.60;99.90
56861;DHT22;42744;51.094;3.490;2023-04-07T10:37:23;10.60;99.90
56861;DHT22;42744;51.094;3.490;2023-04-07T10:45:07;10.80;99.90
56861;DHT22;42744;51.094;3.490;2023-04-07T10:47:34;11.00;99.90
56861;DHT22;42744;51.094;3.490;2023-04-07T10:50:35;11.10;99.90
56861;DHT22;42744;51.094;3.490;2023-04-07T10:53:10;11.30;99.90
56861;DHT22;42744;51.094;3.490;2023-04-07T10:55:40;11.30;99.90
56861;DHT22;42744;51.094;3.490;2023-04-07T10:58:20;11.30;99.90
56861;DHT22;42744;51.094;3.490;2023-04-07T11:03:50;11.40;99.90
56861;DHT22;42744;51.094;3.490;2023-04-07T11:06:17;11.30;99.90
56861;DHT22;42744;51.094;3.490;2023-04-07T11:08:45;11.30;99.90
56861;DHT22;42744;51.094;3.490;2023-04-07T11:11:14;11.30;99.90
56861;DHT22;42744;51.094;3.490;2023-04-07T11:13:41;11.20;99.90
56861;DHT22;42744;51.094;3.490;2023-04-07T11:16:08;11.10;99.90
56861;DHT22;42744;51.094;3.490;2023-04-07T11:18:36;11.10;99.90
56861;DHT22;42744;51.094;3.490;2023-04-07T11:21:03;11.20;99.90
56861;DHT22;42744;51.094;3.490;2023-04-07T11:23:41;11.30;99.90
56861;DHT22;42744;51.094;3.490;2023-04-07T11:26:10;11.40;99.90
56861;DHT22;42744;51.094;3.490;2023-04-07T11:28:52;11.40;99.90
56861;DHT22;42744;51.094;3.490;2023-04-07T11:31:26;11.30;99.90
56861;DHT22;42744;51.094;3.490;2023-04-07T11:34:00;11.30;99.90
56861;DHT22;42744;51.094;3.490;2023-04-07T11:36:32;11.30;99.90
56861;DHT22;42744;51.094;3.490;2023-04-07T11:38:59;11.40;99.90
56861;DHT22;42744;51.094;3.490;2023-04-07T11:41:27;11.30;99.90
56861;DHT22;42744;51.094;3.490;2023-04-07T11:44:08;11.20;99.90
56861;DHT22;42744;51.094;3.490;2023-04-07T11:46:35;11.00;99.90
56861;DHT22;42744;51.094;3.490;2023-04-07T11:49:10;10.80;99.90
56861;DHT22;42744;51.094;3.490;2023-04-07T11:51:37;10.80;99.90
56861;DHT22;42744;51.094;3.490;2023-04-07T11:54:03;10.70;99.90
56861;DHT22;42744;51.094;3.490;2023-04-07T11:56:29;10.60;99.90
56861;DHT22;42744;51.094;3.490;2023-04-07T11:59:06;10.40;99.90
56861;DHT22;42744;51.094;3.490;2023-04-07T12:01:39;10.20;99.90
56861;DHT22;42744;51.094;3.490;2023-04-07T12:04:12;10.20;99.90
56861;DHT22;42744;51.094;3.490;2023-04-07T12:06:39;10.10;99.90
56861;DHT22;42744;51.094;3.490;2023-04-07T12:09:28;10.20;99.90
56861;DHT22;42744;51.094;3.490;2023-04-07T12:11:56;10.30;99.90
56861;DHT22;42744;51.094;3.490;2023-04-07T12:14:23;10.40;99.90
56861;DHT22;42744;51.094;3.490;2023-04-07T12:16:49;10.50;99.90
56861;DHT22;42744;51.094;3.490;2023-04-07T12:19:15;10.60;99.90
56861;DHT22;42744;51.094;3.490;2023-04-07T12:21:41;10.60;99.90
56861;DHT22;42744;51.094;3.490;2023-04-07T12:24:08;10.60;99.90
56861;DHT22;42744;51.094;3.490;2023-04-07T12:26:34;10.50;99.90
56861;DHT22;42744;51.094;3.490;2023-04-07T12:29:02;10.40;99.90
56861;DHT22;42744;51.094;3.490;2023-04-07T12:31:31;10.40;99.90
56861;DHT22;42744;51.094;3.490;2023-04-07T12:33:58;10.30;99.90
56861;DHT22;42744;51.094;3.490;2023-04-07T12:36:25;10.20;99.90
56861;DHT22;42744;51.094;3.490;2023-04-07T12:38:52;10.20;99.90
56861;DHT22;42744;51.094;3.490;2023-04-07T12:41:19;10.20;99.90
56861;DHT22;42744;51.094;3.490;2023-04-07T12:43:45;10.30;99.90
56861;DHT22;42744;51.094;3.490;2023-04-07T12:46:11;10.30;99.90
56861;DHT22;42744;51.094;3.490;2023-04-07T12:48:37;10.40;99.90
56861;DHT22;42744;51.094;3.490;2023-04-07T12:51:04;10.50;99.90
56861;DHT22;42744;51.094;3.490;2023-04-07T12:53:30;10.60;99.90
56861;DHT22;42744;51.094;3.490;2023-04-07T12:55:56;10.60;99.90
56861;DHT22;42744;51.094;3.490;2023-04-07T12:58:23;10.60;99.90
56861;DHT22;42744;51.094;3.490;2023-04-07T13:00:49;10.70;99.90
56861;DHT22;42744;51.094;3.490;2023-04-07T13:03:15;10.70;99.90
56861;DHT22;42744;51.094;3.490;2023-04-07T13:05:41;10.70;99.90
56861;DHT22;42744;51.094;3.490;2023-04-07T13:08:07;10.70;99.90
56861;DHT22;42744;51.094;3.490;2023-04-07T13:10:33;10.70;99.90
56861;DHT22;42744;51.094;3.490;2023-04-07T13:12:59;10.70;99.90
56861;DHT22;42744;51.094;3.490;2023-04-07T13:15:25;10.60;99.90
56861;DHT22;42744;51.094;3.490;2023-04-07T13:17:53;10.60;99.90
56861;DHT22;42744;51.094;3.490;2023-04-07T13:20:20;10.60;99.90
56861;DHT22;42744;51.094;3.490;2023-04-07T13:22:46;10.70;99.90
56861;DHT22;42744;51.094;3.490;2023-04-07T13:25:13;10.70;99.90
56861;DHT22;42744;51.094;3.490;2023-04-07T13:27:39;10.50;99.90
56861;DHT22;42744;51.094;3.490;2023-04-07T13:30:05;10.50;99.90
56861;DHT22;42744;51.094;3.490;2023-04-07T13:32:32;10.50;99.90
56861;DHT22;42744;51.094;3.490;2023-04-07T13:34:58;10.50;99.90
56861;DHT22;42744;51.094;3.490;2023-04-07T13:37:24;10.60;99.90
56861;DHT22;42744;51.094;3.490;2023-04-07T13:39:51;10.60;99.90
56861;DHT22;42744;51.094;3.490;2023-04-07T13:42:17;10.50;99.90
56861;DHT22;42744;51.094;3.490;2023-04-07T13:44:45;10.40;99.90
56861;DHT22;42744;51.094;3.490;2023-04-07T13:47:13;10.40;99.90
56861;DHT22;42744;51.094;3.490;2023-04-07T13:49:49;10.40;99.90
56861;DHT22;42744;51.094;3.490;2023-04-07T13:52:16;10.30;99.90
56861;DHT22;42744;51.094;3.490;2023-04-07T13:54:43;10.40;99.90
56861;DHT22;42744;51.094;3.490;2023-04-07T13:57:12;10.50;99.90
56861;DHT22;42744;51.094;3.490;2023-04-07T13:59:49;10.70;99.90
56861;DHT22;42744;51.094;3.490;2023-04-07T14:02:23;11.10;99.90
56861;DHT22;42744;51.094;3.490;2023-04-07T14:04:50;11.30;99.90
56861;DHT22;42744;51.094;3.490;2023-04-07T14:07:16;11.20;99.90
56861;DHT22;42744;51.094;3.490;2023-04-07T14:09:42;10.90;99.90
56861;DHT22;42744;51.094;3.490;2023-04-07T14:12:10;10.50;99.90
56861;DHT22;42744;51.094;3.490;2023-04-07T14:14:36;10.20;99.90
56861;DHT22;42744;51.094;3.490;2023-04-07T14:17:02;9.90;99.90
56861;DHT22;42744;51.094;3.490;2023-04-07T14:19:28;9.90;99.90
56861;DHT22;42744;51.094;3.490;2023-04-07T14:21:55;9.90;99.90
56861;DHT22;42744;51.094;3.490;2023-04-07T14:24:20;10.00;99.90
56861;DHT22;42744;51.094;3.490;2023-04-07T14:26:47;10.10;99.90
56861;DHT22;42744;51.094;3.490;2023-04-07T14:29:14;10.30;99.90
56861;DHT22;42744;51.094;3.490;2023-04-07T14:31:40;10.30;99.90
56861;DHT22;42744;51.094;3.490;2023-04-07T14:34:06;10.20;99.90
56861;DHT22;42744;51.094;3.490;2023-04-07T14:36:33;10.30;99.90
56861;DHT22;42744;51.094;3.490;2023-04-07T14:38:59;10.40;99.90
56861;DHT22;42744;51.094;3.490;2023-04-07T14:41:26;10.40;99.90
56861;DHT22;42744;51.094;3.490;2023-04-07T14:43:52;10.50;99.90
56861;DHT22;42744;51.094;3.490;2023-04-07T14:46:22;10.60;99.90
56861;DHT22;42744;51.094;3.490;2023-04-07T14:48:49;10.60;99.90
56861;DHT22;42744;51.094;3.490;2023-04-07T14:51:18;10.60;99.90
56861;DHT22;42744;51.094;3.490;2023-04-07T14:53:46;10.50;99.90
56861;DHT22;42744;51.094;3.490;2023-04-07T14:56:15;10.40;99.90
56861;DHT22;42744;51.094;3.490;2023-04-07T14:58:41;10.30;99.90
56861;DHT22;42744;51.094;3.490;2023-04-07T15:01:07;10.20;99.90
56861;DHT22;42744;51.094;3.490;2023-04-07T15:03:34;10.20;99.90
56861;DHT22;42744;51.094;3.490;2023-04-07T15:06:00;10.20;99.90
56861;DHT22;42744;51.094;3.490;2023-04-07T15:08:26;10.20;99.90
56861;DHT22;42744;51.094;3.490;2023-04-07T15:10:52;10.20;99.90
56861;DHT22;42744;51.094;3.490;2023-04-07T15:13:18;10.20;99.90
56861;DHT22;42744;51.094;3.490;2023-04-07T15:15:44;10.20;99.90
56861;DHT22;42744;51.094;3.490;2023-04-07T15:18:10;10.20;99.90
56861;DHT22;42744;51.094;3.490;2023-04-07T15:20:36;10.10;99.90
56861;DHT22;42744;51.094;3.490;2023-04-07T15:23:02;10.00;99.90
56861;DHT22;42744;51.094;3.490;2023-04-07T15:25:28;10.00;99.90
56861;DHT22;42744;51.094;3.490;2023-04-07T15:27:54;10.00;99.90
56861;DHT22;42744;51.094;3.490;2023-04-07T15:30:20;9.90;99.90
56861;DHT22;42744;51.094;3.490;2023-04-07T15:32:59;9.80;99.90
56861;DHT22;42744;51.094;3.490;2023-04-07T15:35:27;9.70;99.90
56861;DHT22;42744;51.094;3.490;2023-04-07T15:37:53;9.70;99.90
56861;DHT22;42744;51.094;3.490;2023-04-07T15:40:19;9.70;99.90
56861;DHT22;42744;51.094;3.490;2023-04-07T15:42:45;9.80;99.90
56861;DHT22;42744;51.094;3.490;2023-04-07T15:45:11;9.80;99.90
56861;DHT22;42744;51.094;3.490;2023-04-07T15:47:37;9.90;99.90
56861;DHT22;42744;51.094;3.490;2023-04-07T15:50:05;10.00;99.90
56861;DHT22;42744;51.094;3.490;2023-04-07T15:52:31;9.90;99.90
56861;DHT22;42744;51.094;3.490;2023-04-07T15:55:02;9.80;99.90
56861;DHT22;42744;51.094;3.490;2023-04-07T15:57:28;9.70;99.90
56861;DHT22;42744;51.094;3.490;2023-04-07T15:59:54;9.70;99.90
56861;DHT22;42744;51.094;3.490;2023-04-07T16:02:20;9.50;99.90
56861;DHT22;42744;51.094;3.490;2023-04-07T16:04:47;9.50;99.90